sensor_id;sensor_type;location;lat;lon;timestamp;P1;durP1;ratioP1;P2;durP2;ratioP2
8642;SDS011;4359;49.358;11.256;2022-09-12T00:02:21;15.70;;;10.13;;
8642;SDS011;4359;49.358;11.256;2022-09-12T00:04:47;11.57;;;9.50;;
8642;SDS011;4359;49.358;11.256;2022-09-12T00:07:13;14.18;;;10.23;;
8642;SDS011;4359;49.358;11.256;2022-09-12T00:09:39;13.30;;;9.63;;
8642;SDS011;4359;49.358;11.256;2022-09-12T00:12:04;10.90;;;8.52;;
8642;SDS011;4359;49.358;11.256;2022-09-12T00:14:30;18.55;;;9.82;;
8642;SDS011;4359;49.358;11.256;2022-09-12T00:16:56;13.13;;;8.90;;
8642;SDS011;4359;49.358;11.256;2022-09-12T00:19:23;14.30;;;8.68;;
8642;SDS011;4359;49.358;11.256;2022-09-12T00:21:50;17.23;;;10.50;;
8642;SDS011;4359;49.358;11.256;2022-09-12T00:24:16;14.40;;;9.93;;
8642;SDS011;4359;49.358;11.256;2022-09-12T00:26:41;17.52;;;10.38;;
8642;SDS011;4359;49.358;11.256;2022-09-12T00:29:07;44.40;;;11.60;;
8642;SDS011;4359;49.358;11.256;2022-09-12T00:31:35;39.90;;;9.68;;
8642;SDS011;4359;49.358;11.256;2022-09-12T00:34:00;14.60;;;9.70;;
8642;SDS011;4359;49.358;11.256;2022-09-12T00:36:27;98.95;;;13.07;;
8642;SDS011;4359;49.358;11.256;2022-09-12T00:38:53;50.42;;;11.95;;
8642;SDS011;4359;49.358;11.256;2022-09-12T00:41:24;76.78;;;11.10;;
8642;SDS011;4359;49.358;11.256;2022-09-12T00:43:56;20.13;;;11.32;;
8642;SDS011;4359;49.358;11.256;2022-09-12T00:49:14;62.08;;;9.98;;
8642;SDS011;4359;49.358;11.256;2022-09-12T00:54:32;22.20;;;10.45;;
8642;SDS011;4359;49.358;11.256;2022-09-12T00:57:11;11.85;;;8.73;;
8642;SDS011;4359;49.358;11.256;2022-09-12T00:59:47;87.50;;;9.98;;
8642;SDS011;4359;49.358;11.256;2022-09-12T01:02:17;105.95;;;10.25;;
8642;SDS011;4359;49.358;11.256;2022-09-12T01:04:43;47.05;;;10.02;;
8642;SDS011;4359;49.358;11.256;2022-09-12T01:07:09;47.70;;;11.27;;
8642;SDS011;4359;49.358;11.256;2022-09-12T01:09:35;45.00;;;11.15;;
8642;SDS011;4359;49.358;11.256;2022-09-12T01:12:03;29.55;;;10.52;;
8642;SDS011;4359;49.358;11.256;2022-09-12T01:14:29;179.05;;;12.63;;
8642;SDS011;4359;49.358;11.256;2022-09-12T01:16:56;17.73;;;8.55;;
8642;SDS011;4359;49.358;11.256;2022-09-12T01:22:22;101.30;;;11.73;;
8642;SDS011;4359;49.358;11.256;2022-09-12T01:30:59;9.73;;;7.28;;
8642;SDS011;4359;49.358;11.256;2022-09-12T01:41:14;14.10;;;9.07;;
8642;SDS011;4359;49.358;11.256;2022-09-12T01:43:57;12.68;;;9.52;;
8642;SDS011;4359;49.358;11.256;2022-09-12T01:49:01;15.82;;;8.45;;
8642;SDS011;4359;49.358;11.256;2022-09-12T01:51:52;47.92;;;10.02;;
8642;SDS011;4359;49.358;11.256;2022-09-12T01:54:34;25.60;;;10.40;;
8642;SDS011;4359;49.358;11.256;2022-09-12T01:57:07;12.50;;;8.55;;
8642;SDS011;4359;49.358;11.256;2022-09-12T01:59:39;13.15;;;8.52;;
8642;SDS011;4359;49.358;11.256;2022-09-12T02:02:13;9.98;;;7.70;;
8642;SDS011;4359;49.358;11.256;2022-09-12T02:07:23;19.38;;;8.88;;
8642;SDS011;4359;49.358;11.256;2022-09-12T02:12:48;14.65;;;9.35;;
8642;SDS011;4359;49.358;11.256;2022-09-12T02:15:26;88.65;;;10.60;;
8642;SDS011;4359;49.358;11.256;2022-09-12T02:18:05;20.88;;;8.63;;
8642;SDS011;4359;49.358;11.256;2022-09-12T02:20:37;18.75;;;8.75;;
8642;SDS011;4359;49.358;11.256;2022-09-12T02:23:06;11.35;;;8.13;;
8642;SDS011;4359;49.358;11.256;2022-09-12T02:25:36;11.82;;;8.65;;
8642;SDS011;4359;49.358;11.256;2022-09-12T02:28:28;12.65;;;8.93;;
8642;SDS011;4359;49.358;11.256;2022-09-12T02:30:58;12.63;;;9.00;;
8642;SDS011;4359;49.358;11.256;2022-09-12T02:39:04;13.15;;;8.15;;
8642;SDS011;4359;49.358;11.256;2022-09-12T02:41:30;14.38;;;9.48;;
8642;SDS011;4359;49.358;11.256;2022-09-12T02:43:55;35.60;;;9.52;;
8642;SDS011;4359;49.358;11.256;2022-09-12T02:46:23;96.47;;;10.02;;
8642;SDS011;4359;49.358;11.256;2022-09-12T02:48:56;53.78;;;8.95;;
8642;SDS011;4359;49.358;11.256;2022-09-12T02:51:22;170.82;;;10.85;;
8642;SDS011;4359;49.358;11.256;2022-09-12T02:53:48;14.48;;;8.18;;
8642;SDS011;4359;49.358;11.256;2022-09-12T02:56:17;28.98;;;8.30;;
8642;SDS011;4359;49.358;11.256;2022-09-12T02:58:49;30.48;;;8.40;;
8642;SDS011;4359;49.358;11.256;2022-09-12T03:09:05;10.43;;;7.13;;
8642;SDS011;4359;49.358;11.256;2022-09-12T03:16:56;13.93;;;9.30;;
8642;SDS011;4359;49.358;11.256;2022-09-12T03:19:39;11.60;;;7.47;;
8642;SDS011;4359;49.358;11.256;2022-09-12T03:22:33;11.55;;;7.68;;
8642;SDS011;4359;49.358;11.256;2022-09-12T03:27:40;11.95;;;8.25;;
8642;SDS011;4359;49.358;11.256;2022-09-12T03:30:10;9.30;;;6.93;;
8642;SDS011;4359;49.358;11.256;2022-09-12T03:32:40;21.90;;;8.57;;
8642;SDS011;4359;49.358;11.256;2022-09-12T03:35:06;16.88;;;8.38;;
8642;SDS011;4359;49.358;11.256;2022-09-12T03:37:32;10.68;;;8.00;;
8642;SDS011;4359;49.358;11.256;2022-09-12T03:39:57;10.23;;;6.82;;
8642;SDS011;4359;49.358;11.256;2022-09-12T03:42:23;11.35;;;7.22;;
8642;SDS011;4359;49.358;11.256;2022-09-12T03:44:49;15.20;;;9.00;;
8642;SDS011;4359;49.358;11.256;2022-09-12T03:47:14;11.20;;;8.40;;
8642;SDS011;4359;49.358;11.256;2022-09-12T03:49:40;13.80;;;8.15;;
8642;SDS011;4359;49.358;11.256;2022-09-12T03:52:06;11.98;;;7.93;;
8642;SDS011;4359;49.358;11.256;2022-09-12T03:54:32;11.05;;;7.57;;
8642;SDS011;4359;49.358;11.256;2022-09-12T03:56:57;12.80;;;7.80;;
8642;SDS011;4359;49.358;11.256;2022-09-12T03:59:23;13.93;;;8.52;;
8642;SDS011;4359;49.358;11.256;2022-09-12T04:01:49;16.23;;;7.93;;
8642;SDS011;4359;49.358;11.256;2022-09-12T04:04:14;21.85;;;9.25;;
8642;SDS011;4359;49.358;11.256;2022-09-12T04:06:40;11.98;;;8.27;;
8642;SDS011;4359;49.358;11.256;2022-09-12T04:09:06;18.52;;;8.57;;
8642;SDS011;4359;49.358;11.256;2022-09-12T04:11:32;10.85;;;7.18;;
8642;SDS011;4359;49.358;11.256;2022-09-12T04:13:59;15.23;;;8.40;;
8642;SDS011;4359;49.358;11.256;2022-09-12T04:16:25;11.52;;;7.35;;
8642;SDS011;4359;49.358;11.256;2022-09-12T04:18:51;13.23;;;7.88;;
8642;SDS011;4359;49.358;11.256;2022-09-12T04:21:17;12.18;;;8.30;;
8642;SDS011;4359;49.358;11.256;2022-09-12T04:23:45;10.38;;;7.15;;
8642;SDS011;4359;49.358;11.256;2022-09-12T04:26:12;15.20;;;7.32;;
8642;SDS011;4359;49.358;11.256;2022-09-12T04:28:38;11.77;;;8.02;;
8642;SDS011;4359;49.358;11.256;2022-09-12T04:31:05;30.13;;;8.73;;
8642;SDS011;4359;49.358;11.256;2022-09-12T04:33:32;13.23;;;8.02;;
8642;SDS011;4359;49.358;11.256;2022-09-12T04:36:09;17.58;;;7.82;;
8642;SDS011;4359;49.358;11.256;2022-09-12T04:38:40;12.98;;;7.75;;
8642;SDS011;4359;49.358;11.256;2022-09-12T04:41:11;10.88;;;7.50;;
8642;SDS011;4359;49.358;11.256;2022-09-12T04:43:37;9.75;;;7.25;;
8642;SDS011;4359;49.358;11.256;2022-09-12T04:46:07;16.88;;;6.93;;
8642;SDS011;4359;49.358;11.256;2022-09-12T04:48:34;12.52;;;7.75;;
8642;SDS011;4359;49.358;11.256;2022-09-12T04:53:32;74.65;;;8.48;;
8642;SDS011;4359;49.358;11.256;2022-09-12T04:56:05;15.80;;;7.60;;
8642;SDS011;4359;49.358;11.256;2022-09-12T04:58:33;11.13;;;7.50;;
8642;SDS011;4359;49.358;11.256;2022-09-12T05:01:10;11.32;;;8.15;;
8642;SDS011;4359;49.358;11.256;2022-09-12T05:03:37;14.20;;;8.88;;
8642;SDS011;4359;49.358;11.256;2022-09-12T05:06:04;19.75;;;9.27;;
8642;SDS011;4359;49.358;11.256;2022-09-12T05:08:31;27.90;;;9.77;;
8642;SDS011;4359;49.358;11.256;2022-09-12T05:11:06;12.45;;;8.10;;
8642;SDS011;4359;49.358;11.256;2022-09-12T05:13:34;13.73;;;8.13;;
8642;SDS011;4359;49.358;11.256;2022-09-12T05:16:01;19.80;;;9.23;;
8642;SDS011;4359;49.358;11.256;2022-09-12T05:18:29;19.60;;;8.32;;
8642;SDS011;4359;49.358;11.256;2022-09-12T05:20:58;15.35;;;8.43;;
8642;SDS011;4359;49.358;11.256;2022-09-12T05:23:24;15.20;;;9.13;;
8642;SDS011;4359;49.358;11.256;2022-09-12T05:25:51;14.15;;;8.75;;
8642;SDS011;4359;49.358;11.256;2022-09-12T05:28:19;17.27;;;8.43;;
8642;SDS011;4359;49.358;11.256;2022-09-12T05:30:45;17.63;;;8.90;;
8642;SDS011;4359;49.358;11.256;2022-09-12T05:33:12;12.65;;;8.07;;
8642;SDS011;4359;49.358;11.256;2022-09-12T05:35:38;30.58;;;9.80;;
8642;SDS011;4359;49.358;11.256;2022-09-12T05:38:05;17.27;;;10.02;;
8642;SDS011;4359;49.358;11.256;2022-09-12T05:40:32;15.48;;;9.45;;
8642;SDS011;4359;49.358;11.256;2022-09-12T05:42:58;16.30;;;10.43;;
8642;SDS011;4359;49.358;11.256;2022-09-12T05:45:24;17.98;;;10.02;;
8642;SDS011;4359;49.358;11.256;2022-09-12T05:47:51;17.70;;;9.48;;
8642;SDS011;4359;49.358;11.256;2022-09-12T05:50:18;21.55;;;11.45;;
8642;SDS011;4359;49.358;11.256;2022-09-12T05:52:44;51.95;;;10.75;;
8642;SDS011;4359;49.358;11.256;2022-09-12T05:55:10;31.08;;;10.23;;
8642;SDS011;4359;49.358;11.256;2022-09-12T05:57:35;16.30;;;9.95;;
8642;SDS011;4359;49.358;11.256;2022-09-12T06:00:02;15.32;;;9.82;;
8642;SDS011;4359;49.358;11.256;2022-09-12T06:02:29;17.13;;;9.85;;
8642;SDS011;4359;49.358;11.256;2022-09-12T06:04:55;20.77;;;10.75;;
8642;SDS011;4359;49.358;11.256;2022-09-12T06:07:20;18.58;;;10.02;;
8642;SDS011;4359;49.358;11.256;2022-09-12T06:09:46;16.40;;;10.73;;
8642;SDS011;4359;49.358;11.256;2022-09-12T06:12:12;15.85;;;10.05;;
8642;SDS011;4359;49.358;11.256;2022-09-12T06:14:37;17.20;;;9.93;;
8642;SDS011;4359;49.358;11.256;2022-09-12T06:17:03;14.50;;;9.55;;
8642;SDS011;4359;49.358;11.256;2022-09-12T06:19:29;15.55;;;9.98;;
8642;SDS011;4359;49.358;11.256;2022-09-12T06:21:56;19.38;;;10.82;;
8642;SDS011;4359;49.358;11.256;2022-09-12T06:24:22;18.92;;;11.02;;
8642;SDS011;4359;49.358;11.256;2022-09-12T06:26:48;15.27;;;10.75;;
8642;SDS011;4359;49.358;11.256;2022-09-12T06:29:15;16.83;;;11.02;;
8642;SDS011;4359;49.358;11.256;2022-09-12T06:31:43;17.20;;;10.13;;
8642;SDS011;4359;49.358;11.256;2022-09-12T06:34:10;18.73;;;11.32;;
8642;SDS011;4359;49.358;11.256;2022-09-12T06:36:47;15.90;;;10.63;;
8642;SDS011;4359;49.358;11.256;2022-09-12T06:39:14;18.25;;;11.48;;
8642;SDS011;4359;49.358;11.256;2022-09-12T06:41:41;17.10;;;11.05;;
8642;SDS011;4359;49.358;11.256;2022-09-12T06:44:08;18.67;;;10.70;;
8642;SDS011;4359;49.358;11.256;2022-09-12T06:46:40;16.90;;;10.27;;
8642;SDS011;4359;49.358;11.256;2022-09-12T06:49:06;15.30;;;10.23;;
8642;SDS011;4359;49.358;11.256;2022-09-12T06:51:32;14.15;;;9.63;;
8642;SDS011;4359;49.358;11.256;2022-09-12T06:54:00;13.90;;;9.45;;
8642;SDS011;4359;49.358;11.256;2022-09-12T06:56:26;13.90;;;9.38;;
8642;SDS011;4359;49.358;11.256;2022-09-12T06:58:52;11.48;;;8.32;;
8642;SDS011;4359;49.358;11.256;2022-09-12T07:01:24;13.23;;;8.38;;
8642;SDS011;4359;49.358;11.256;2022-09-12T07:03:55;12.40;;;7.88;;
8642;SDS011;4359;49.358;11.256;2022-09-12T07:06:24;9.55;;;7.15;;
8642;SDS011;4359;49.358;11.256;2022-09-12T07:08:56;10.40;;;7.40;;
8642;SDS011;4359;49.358;11.256;2022-09-12T07:11:26;9.38;;;7.35;;
8642;SDS011;4359;49.358;11.256;2022-09-12T07:13:55;8.63;;;6.93;;
8642;SDS011;4359;49.358;11.256;2022-09-12T07:16:21;14.65;;;7.00;;
8642;SDS011;4359;49.358;11.256;2022-09-12T07:18:54;7.70;;;5.70;;
8642;SDS011;4359;49.358;11.256;2022-09-12T07:21:21;7.90;;;5.68;;
8642;SDS011;4359;49.358;11.256;2022-09-12T07:23:47;7.97;;;5.63;;
8642;SDS011;4359;49.358;11.256;2022-09-12T07:26:16;7.57;;;5.40;;
8642;SDS011;4359;49.358;11.256;2022-09-12T07:28:42;9.95;;;6.60;;
8642;SDS011;4359;49.358;11.256;2022-09-12T07:31:09;8.82;;;7.53;;
8642;SDS011;4359;49.358;11.256;2022-09-12T07:33:37;11.27;;;7.97;;
8642;SDS011;4359;49.358;11.256;2022-09-12T07:36:05;9.07;;;7.32;;
8642;SDS011;4359;49.358;11.256;2022-09-12T07:38:33;10.75;;;8.20;;
8642;SDS011;4359;49.358;11.256;2022-09-12T07:40:59;12.40;;;8.55;;
8642;SDS011;4359;49.358;11.256;2022-09-12T07:43:25;12.50;;;9.68;;
8642;SDS011;4359;49.358;11.256;2022-09-12T07:45:54;10.02;;;8.77;;
8642;SDS011;4359;49.358;11.256;2022-09-12T07:48:21;11.98;;;9.77;;
8642;SDS011;4359;49.358;11.256;2022-09-12T07:50:47;10.82;;;8.98;;
8642;SDS011;4359;49.358;11.256;2022-09-12T07:53:24;11.63;;;10.20;;
8642;SDS011;4359;49.358;11.256;2022-09-12T07:55:54;13.13;;;10.75;;
8642;SDS011;4359;49.358;11.256;2022-09-12T07:58:21;12.60;;;9.25;;
8642;SDS011;4359;49.358;11.256;2022-09-12T08:00:47;14.35;;;9.30;;
8642;SDS011;4359;49.358;11.256;2022-09-12T08:03:13;17.05;;;9.68;;
8642;SDS011;4359;49.358;11.256;2022-09-12T08:05:39;9.82;;;8.68;;
8642;SDS011;4359;49.358;11.256;2022-09-12T08:08:04;12.52;;;7.72;;
8642;SDS011;4359;49.358;11.256;2022-09-12T08:10:30;12.02;;;8.98;;
8642;SDS011;4359;49.358;11.256;2022-09-12T08:12:56;8.85;;;7.45;;
8642;SDS011;4359;49.358;11.256;2022-09-12T08:15:22;10.60;;;5.93;;
8642;SDS011;4359;49.358;11.256;2022-09-12T08:17:49;6.90;;;5.82;;
8642;SDS011;4359;49.358;11.256;2022-09-12T08:20:14;6.93;;;5.70;;
8642;SDS011;4359;49.358;11.256;2022-09-12T08:22:41;7.05;;;5.78;;
8642;SDS011;4359;49.358;11.256;2022-09-12T08:25:07;8.35;;;6.15;;
8642;SDS011;4359;49.358;11.256;2022-09-12T08:27:33;8.50;;;5.88;;
8642;SDS011;4359;49.358;11.256;2022-09-12T08:29:59;6.80;;;5.68;;
8642;SDS011;4359;49.358;11.256;2022-09-12T08:32:24;8.07;;;4.97;;
8642;SDS011;4359;49.358;11.256;2022-09-12T08:34:50;6.28;;;5.47;;
8642;SDS011;4359;49.358;11.256;2022-09-12T08:37:15;7.32;;;4.90;;
8642;SDS011;4359;49.358;11.256;2022-09-12T08:39:41;6.53;;;4.70;;
8642;SDS011;4359;49.358;11.256;2022-09-12T08:42:08;5.80;;;4.68;;
8642;SDS011;4359;49.358;11.256;2022-09-12T08:58:18;5.10;;;2.45;;
8642;SDS011;4359;49.358;11.256;2022-09-12T09:09:26;4.15;;;2.80;;
8642;SDS011;4359;49.358;11.256;2022-09-12T09:17:33;4.20;;;3.10;;
8642;SDS011;4359;49.358;11.256;2022-09-12T09:25:41;5.32;;;3.00;;
8642;SDS011;4359;49.358;11.256;2022-09-12T09:28:10;4.60;;;3.63;;
8642;SDS011;4359;49.358;11.256;2022-09-12T09:30:44;4.40;;;3.45;;
8642;SDS011;4359;49.358;11.256;2022-09-12T09:33:18;6.85;;;3.80;;
8642;SDS011;4359;49.358;11.256;2022-09-12T09:36:01;7.68;;;3.88;;
8642;SDS011;4359;49.358;11.256;2022-09-12T09:38:35;7.68;;;3.72;;
8642;SDS011;4359;49.358;11.256;2022-09-12T09:41:11;6.60;;;3.53;;
8642;SDS011;4359;49.358;11.256;2022-09-12T09:43:43;4.28;;;3.22;;
8642;SDS011;4359;49.358;11.256;2022-09-12T09:46:09;5.45;;;3.47;;
8642;SDS011;4359;49.358;11.256;2022-09-12T09:48:36;8.38;;;3.90;;
8642;SDS011;4359;49.358;11.256;2022-09-12T09:51:07;7.78;;;3.75;;
8642;SDS011;4359;49.358;11.256;2022-09-12T09:53:39;5.07;;;2.67;;
8642;SDS011;4359;49.358;11.256;2022-09-12T09:58:49;5.07;;;3.33;;
8642;SDS011;4359;49.358;11.256;2022-09-12T10:01:15;4.97;;;2.75;;
8642;SDS011;4359;49.358;11.256;2022-09-12T10:03:48;4.22;;;3.05;;
8642;SDS011;4359;49.358;11.256;2022-09-12T10:08:44;3.80;;;2.40;;
8642;SDS011;4359;49.358;11.256;2022-09-12T10:18:45;3.97;;;3.15;;
8642;SDS011;4359;49.358;11.256;2022-09-12T10:21:19;4.45;;;3.60;;
8642;SDS011;4359;49.358;11.256;2022-09-12T10:23:53;5.05;;;4.00;;
8642;SDS011;4359;49.358;11.256;2022-09-12T10:28:57;4.95;;;3.63;;
8642;SDS011;4359;49.358;11.256;2022-09-12T10:31:47;5.15;;;3.63;;
8642;SDS011;4359;49.358;11.256;2022-09-12T10:37:04;5.68;;;3.38;;
8642;SDS011;4359;49.358;11.256;2022-09-12T10:39:33;5.93;;;3.75;;
8642;SDS011;4359;49.358;11.256;2022-09-12T10:42:00;6.53;;;3.70;;
8642;SDS011;4359;49.358;11.256;2022-09-12T10:44:30;5.80;;;3.63;;
8642;SDS011;4359;49.358;11.256;2022-09-12T10:46:58;5.07;;;3.47;;
8642;SDS011;4359;49.358;11.256;2022-09-12T10:49:38;4.75;;;3.38;;
8642;SDS011;4359;49.358;11.256;2022-09-12T10:52:19;5.47;;;3.10;;
8642;SDS011;4359;49.358;11.256;2022-09-12T10:54:47;4.65;;;2.70;;
8642;SDS011;4359;49.358;11.256;2022-09-12T11:02:58;4.32;;;3.25;;
8642;SDS011;4359;49.358;11.256;2022-09-12T11:08:10;3.97;;;3.20;;
8642;SDS011;4359;49.358;11.256;2022-09-12T11:19:34;6.90;;;3.45;;
8642;SDS011;4359;49.358;11.256;2022-09-12T11:30:20;4.68;;;3.00;;
8642;SDS011;4359;49.358;11.256;2022-09-12T11:35:27;4.55;;;2.60;;
8642;SDS011;4359;49.358;11.256;2022-09-12T11:43:31;5.82;;;3.15;;
8642;SDS011;4359;49.358;11.256;2022-09-12T11:48:40;3.90;;;2.50;;
8642;SDS011;4359;49.358;11.256;2022-09-12T11:51:40;4.18;;;2.55;;
8642;SDS011;4359;49.358;11.256;2022-09-12T11:54:20;4.85;;;2.47;;
8642;SDS011;4359;49.358;11.256;2022-09-12T11:56:48;3.78;;;2.88;;
8642;SDS011;4359;49.358;11.256;2022-09-12T12:02:13;4.07;;;2.70;;
8642;SDS011;4359;49.358;11.256;2022-09-12T12:07:38;3.40;;;2.60;;
8642;SDS011;4359;49.358;11.256;2022-09-12T12:10:07;4.53;;;2.70;;
8642;SDS011;4359;49.358;11.256;2022-09-12T12:12:50;5.57;;;3.20;;
8642;SDS011;4359;49.358;11.256;2022-09-12T12:15:18;3.20;;;2.70;;
8642;SDS011;4359;49.358;11.256;2022-09-12T12:17:44;4.20;;;2.88;;
8642;SDS011;4359;49.358;11.256;2022-09-12T12:20:28;3.63;;;2.50;;
8642;SDS011;4359;49.358;11.256;2022-09-12T12:22:54;6.75;;;3.05;;
8642;SDS011;4359;49.358;11.256;2022-09-12T12:25:21;4.57;;;2.80;;
8642;SDS011;4359;49.358;11.256;2022-09-12T12:27:54;3.70;;;2.50;;
8642;SDS011;4359;49.358;11.256;2022-09-12T12:38:03;4.40;;;2.72;;
8642;SDS011;4359;49.358;11.256;2022-09-12T12:40:50;3.97;;;2.70;;
8642;SDS011;4359;49.358;11.256;2022-09-12T12:43:29;4.38;;;2.90;;
8642;SDS011;4359;49.358;11.256;2022-09-12T12:46:04;3.58;;;2.63;;
8642;SDS011;4359;49.358;11.256;2022-09-12T12:48:32;3.50;;;2.67;;
8642;SDS011;4359;49.358;11.256;2022-09-12T12:53:58;3.75;;;2.70;;
8642;SDS011;4359;49.358;11.256;2022-09-12T12:56:32;4.28;;;2.80;;
8642;SDS011;4359;49.358;11.256;2022-09-12T12:59:12;4.22;;;2.70;;
8642;SDS011;4359;49.358;11.256;2022-09-12T13:01:45;3.53;;;2.58;;
8642;SDS011;4359;49.358;11.256;2022-09-12T13:04:14;4.10;;;2.75;;
8642;SDS011;4359;49.358;11.256;2022-09-12T13:06:43;3.58;;;2.40;;
8642;SDS011;4359;49.358;11.256;2022-09-12T13:11:54;4.30;;;2.80;;
8642;SDS011;4359;49.358;11.256;2022-09-12T13:17:37;4.78;;;3.13;;
8642;SDS011;4359;49.358;11.256;2022-09-12T13:22:48;4.35;;;3.20;;
8642;SDS011;4359;49.358;11.256;2022-09-12T13:28:25;3.75;;;3.00;;
8642;SDS011;4359;49.358;11.256;2022-09-12T13:30:43;3.30;;;2.40;;
8642;SDS011;4359;49.358;11.256;2022-09-12T13:33:19;3.90;;;2.80;;
8642;SDS011;4359;49.358;11.256;2022-09-12T13:36:02;4.63;;;2.80;;
8642;SDS011;4359;49.358;11.256;2022-09-12T13:43:46;3.78;;;3.08;;
8642;SDS011;4359;49.358;11.256;2022-09-12T13:46:14;5.75;;;3.00;;
8642;SDS011;4359;49.358;11.256;2022-09-12T13:48:44;4.55;;;3.10;;
8642;SDS011;4359;49.358;11.256;2022-09-12T13:51:23;4.95;;;3.15;;
8642;SDS011;4359;49.358;11.256;2022-09-12T13:53:55;3.92;;;2.90;;
8642;SDS011;4359;49.358;11.256;2022-09-12T13:56:24;6.63;;;2.90;;
8642;SDS011;4359;49.358;11.256;2022-09-12T13:58:51;4.80;;;2.90;;
8642;SDS011;4359;49.358;11.256;2022-09-12T14:01:18;3.97;;;3.05;;
8642;SDS011;4359;49.358;11.256;2022-09-12T14:03:51;5.57;;;2.60;;
8642;SDS011;4359;49.358;11.256;2022-09-12T14:11:47;4.68;;;2.70;;
8642;SDS011;4359;49.358;11.256;2022-09-12T14:14:17;4.05;;;3.00;;
8642;SDS011;4359;49.358;11.256;2022-09-12T14:16:51;2.97;;;2.47;;
8642;SDS011;4359;49.358;11.256;2022-09-12T14:19:18;4.57;;;2.90;;
8642;SDS011;4359;49.358;11.256;2022-09-12T14:21:47;4.05;;;2.95;;
8642;SDS011;4359;49.358;11.256;2022-09-12T14:24:14;4.32;;;2.90;;
8642;SDS011;4359;49.358;11.256;2022-09-12T14:26:41;4.45;;;2.92;;
8642;SDS011;4359;49.358;11.256;2022-09-12T14:29:08;4.97;;;3.08;;
8642;SDS011;4359;49.358;11.256;2022-09-12T14:31:39;4.30;;;2.90;;
8642;SDS011;4359;49.358;11.256;2022-09-12T14:39:15;3.85;;;3.00;;
8642;SDS011;4359;49.358;11.256;2022-09-12T14:41:41;3.47;;;2.58;;
8642;SDS011;4359;49.358;11.256;2022-09-12T14:44:13;4.13;;;2.80;;
8642;SDS011;4359;49.358;11.256;2022-09-12T14:46:49;4.55;;;3.20;;
8642;SDS011;4359;49.358;11.256;2022-09-12T14:57:02;6.28;;;3.60;;
8642;SDS011;4359;49.358;11.256;2022-09-12T14:59:41;4.63;;;3.05;;
8642;SDS011;4359;49.358;11.256;2022-09-12T15:04:46;4.03;;;2.90;;
8642;SDS011;4359;49.358;11.256;2022-09-12T15:10:28;5.85;;;3.03;;
8642;SDS011;4359;49.358;11.256;2022-09-12T15:15:30;5.57;;;3.30;;
8642;SDS011;4359;49.358;11.256;2022-09-12T15:17:56;5.43;;;2.85;;
8642;SDS011;4359;49.358;11.256;2022-09-12T15:20:22;6.38;;;3.08;;
8642;SDS011;4359;49.358;11.256;2022-09-12T15:22:48;5.47;;;3.15;;
8642;SDS011;4359;49.358;11.256;2022-09-12T15:25:14;5.22;;;2.72;;
8642;SDS011;4359;49.358;11.256;2022-09-12T15:27:40;7.72;;;3.05;;
8642;SDS011;4359;49.358;11.256;2022-09-12T15:30:09;3.75;;;2.67;;
8642;SDS011;4359;49.358;11.256;2022-09-12T15:32:37;4.35;;;2.60;;
8642;SDS011;4359;49.358;11.256;2022-09-12T15:35:08;4.90;;;2.92;;
8642;SDS011;4359;49.358;11.256;2022-09-12T15:37:43;6.38;;;3.00;;
8642;SDS011;4359;49.358;11.256;2022-09-12T15:40:12;4.20;;;2.90;;
8642;SDS011;4359;49.358;11.256;2022-09-12T15:42:38;4.72;;;3.20;;
8642;SDS011;4359;49.358;11.256;2022-09-12T15:45:25;4.55;;;3.20;;
8642;SDS011;4359;49.358;11.256;2022-09-12T15:47:52;4.80;;;3.08;;
8642;SDS011;4359;49.358;11.256;2022-09-12T15:50:18;6.18;;;2.97;;
8642;SDS011;4359;49.358;11.256;2022-09-12T15:52:44;5.70;;;3.13;;
8642;SDS011;4359;49.358;11.256;2022-09-12T15:55:20;4.30;;;3.13;;
8642;SDS011;4359;49.358;11.256;2022-09-12T15:57:47;6.10;;;3.05;;
8642;SDS011;4359;49.358;11.256;2022-09-12T16:00:14;4.82;;;3.20;;
8642;SDS011;4359;49.358;11.256;2022-09-12T16:02:41;4.43;;;3.10;;
8642;SDS011;4359;49.358;11.256;2022-09-12T16:05:10;3.90;;;3.22;;
8642;SDS011;4359;49.358;11.256;2022-09-12T16:07:40;4.07;;;3.10;;
8642;SDS011;4359;49.358;11.256;2022-09-12T16:10:06;5.70;;;3.35;;
8642;SDS011;4359;49.358;11.256;2022-09-12T16:12:32;5.63;;;3.03;;
8642;SDS011;4359;49.358;11.256;2022-09-12T16:14:57;4.65;;;3.13;;
8642;SDS011;4359;49.358;11.256;2022-09-12T16:17:23;4.57;;;3.10;;
8642;SDS011;4359;49.358;11.256;2022-09-12T16:19:48;4.28;;;3.42;;
8642;SDS011;4359;49.358;11.256;2022-09-12T16:22:14;5.15;;;3.22;;
8642;SDS011;4359;49.358;11.256;2022-09-12T16:24:40;4.30;;;3.47;;
8642;SDS011;4359;49.358;11.256;2022-09-12T16:27:05;5.30;;;3.15;;
8642;SDS011;4359;49.358;11.256;2022-09-12T16:29:31;4.47;;;3.00;;
8642;SDS011;4359;49.358;11.256;2022-09-12T16:31:56;4.78;;;3.05;;
8642;SDS011;4359;49.358;11.256;2022-09-12T16:34:22;8.02;;;3.40;;
8642;SDS011;4359;49.358;11.256;2022-09-12T16:36:48;5.47;;;3.80;;
8642;SDS011;4359;49.358;11.256;2022-09-12T16:39:13;8.05;;;3.58;;
8642;SDS011;4359;49.358;11.256;2022-09-12T16:41:39;6.15;;;3.38;;
8642;SDS011;4359;49.358;11.256;2022-09-12T16:44:06;4.93;;;3.30;;
8642;SDS011;4359;49.358;11.256;2022-09-12T16:46:32;8.15;;;4.18;;
8642;SDS011;4359;49.358;11.256;2022-09-12T16:48:58;5.15;;;3.47;;
8642;SDS011;4359;49.358;11.256;2022-09-12T16:51:30;5.40;;;3.60;;
8642;SDS011;4359;49.358;11.256;2022-09-12T16:53:59;5.90;;;3.72;;
8642;SDS011;4359;49.358;11.256;2022-09-12T16:56:25;4.50;;;3.63;;
8642;SDS011;4359;49.358;11.256;2022-09-12T16:58:51;4.60;;;3.28;;
8642;SDS011;4359;49.358;11.256;2022-09-12T17:01:26;5.68;;;3.60;;
8642;SDS011;4359;49.358;11.256;2022-09-12T17:03:53;4.93;;;3.55;;
8642;SDS011;4359;49.358;11.256;2022-09-12T17:06:20;5.75;;;3.85;;
8642;SDS011;4359;49.358;11.256;2022-09-12T17:08:48;4.57;;;3.80;;
8642;SDS011;4359;49.358;11.256;2022-09-12T17:11:19;6.60;;;3.70;;
8642;SDS011;4359;49.358;11.256;2022-09-12T17:13:55;8.38;;;3.80;;
8642;SDS011;4359;49.358;11.256;2022-09-12T17:16:21;12.23;;;4.43;;
8642;SDS011;4359;49.358;11.256;2022-09-12T17:18:47;4.60;;;3.90;;
8642;SDS011;4359;49.358;11.256;2022-09-12T17:21:13;6.82;;;3.95;;
8642;SDS011;4359;49.358;11.256;2022-09-12T17:23:39;4.80;;;3.65;;
8642;SDS011;4359;49.358;11.256;2022-09-12T17:26:05;6.95;;;4.13;;
8642;SDS011;4359;49.358;11.256;2022-09-12T17:28:31;10.43;;;4.38;;
8642;SDS011;4359;49.358;11.256;2022-09-12T17:30:59;5.38;;;4.18;;
8642;SDS011;4359;49.358;11.256;2022-09-12T17:33:26;7.38;;;4.53;;
8642;SDS011;4359;49.358;11.256;2022-09-12T17:35:53;6.60;;;4.45;;
8642;SDS011;4359;49.358;11.256;2022-09-12T17:38:19;6.80;;;4.97;;
8642;SDS011;4359;49.358;11.256;2022-09-12T17:40:45;5.53;;;4.60;;
8642;SDS011;4359;49.358;11.256;2022-09-12T17:43:11;9.82;;;4.75;;
8642;SDS011;4359;49.358;11.256;2022-09-12T17:45:38;7.57;;;4.70;;
8642;SDS011;4359;49.358;11.256;2022-09-12T17:48:04;5.60;;;4.93;;
8642;SDS011;4359;49.358;11.256;2022-09-12T17:50:34;8.30;;;5.50;;
8642;SDS011;4359;49.358;11.256;2022-09-12T17:53:04;6.00;;;5.10;;
8642;SDS011;4359;49.358;11.256;2022-09-12T17:55:35;9.43;;;5.10;;
8642;SDS011;4359;49.358;11.256;2022-09-12T17:58:01;12.30;;;6.20;;
8642;SDS011;4359;49.358;11.256;2022-09-12T18:00:27;9.10;;;5.13;;
8642;SDS011;4359;49.358;11.256;2022-09-12T18:03:13;10.70;;;4.85;;
8642;SDS011;4359;49.358;11.256;2022-09-12T18:05:46;9.05;;;5.50;;
8642;SDS011;4359;49.358;11.256;2022-09-12T18:08:12;7.47;;;5.70;;
8642;SDS011;4359;49.358;11.256;2022-09-12T18:10:39;7.80;;;5.70;;
8642;SDS011;4359;49.358;11.256;2022-09-12T18:13:04;8.05;;;5.50;;
8642;SDS011;4359;49.358;11.256;2022-09-12T18:15:32;12.05;;;5.65;;
8642;SDS011;4359;49.358;11.256;2022-09-12T18:17:58;8.52;;;6.15;;
8642;SDS011;4359;49.358;11.256;2022-09-12T18:20:25;9.25;;;5.72;;
8642;SDS011;4359;49.358;11.256;2022-09-12T18:22:50;8.25;;;5.55;;
8642;SDS011;4359;49.358;11.256;2022-09-12T18:25:16;7.03;;;5.53;;
8642;SDS011;4359;49.358;11.256;2022-09-12T18:27:42;9.32;;;6.15;;